createdAt,value
2019-02-12T00:02:19.413Z,8.75
2019-02-12T00:04:59.310Z,7.65
2019-02-12T00:07:39.296Z,11.23
2019-02-12T00:10:19.256Z,15.68
2019-02-12T00:12:59.576Z,7.75
2019-02-12T00:15:40.754Z,11.90
2019-02-12T00:18:24.615Z,10.90
2019-02-12T00:21:09.257Z,7.20
2019-02-12T00:23:47.062Z,6.97
2019-02-12T00:26:27.088Z,16.67
2019-02-12T00:29:07.239Z,14.03
2019-02-12T00:31:47.571Z,15.18
2019-02-12T00:34:27.815Z,10.68
2019-02-12T00:37:08.055Z,11.97
2019-02-12T00:39:47.633Z,9.25
2019-02-12T00:42:27.772Z,10.10
2019-02-12T00:45:08.140Z,9.53
2019-02-12T00:47:49.127Z,10.28
2019-02-12T00:50:29.370Z,12.78
2019-02-12T00:53:09.347Z,12.10
2019-02-12T00:55:50.428Z,13.08
2019-02-12T00:58:30.082Z,10.18
2019-02-12T01:01:10.780Z,11.38
2019-02-12T01:03:51.196Z,13.25
2019-02-12T01:06:31.231Z,9.83
2019-02-12T01:09:11.468Z,10.03
2019-02-12T01:11:51.438Z,14.63
2019-02-12T01:14:32.338Z,12.90
2019-02-12T01:17:12.853Z,14.40
2019-02-12T01:19:52.715Z,16.00
2019-02-12T01:22:32.720Z,13.90
2019-02-12T01:25:12.904Z,14.93
2019-02-12T01:27:53.240Z,15.45
2019-02-12T01:30:33.437Z,17.62
2019-02-12T01:33:13.642Z,12.63
2019-02-12T01:35:53.440Z,11.85
2019-02-12T01:38:33.577Z,16.27
2019-02-12T01:41:14.052Z,12.47
2019-02-12T01:43:53.994Z,9.40
2019-02-12T01:46:34.093Z,13.90
2019-02-12T01:49:14.187Z,12.73
2019-02-12T01:51:54.244Z,13.60
2019-02-12T01:54:34.111Z,11.00
2019-02-12T01:57:14.362Z,11.88
2019-02-12T01:59:54.587Z,15.93
2019-02-12T02:02:34.869Z,11.95
2019-02-12T02:05:14.564Z,16.85
2019-02-12T02:07:54.795Z,13.88
2019-02-12T02:10:34.957Z,15.48
2019-02-12T02:13:15.064Z,13.28
2019-02-12T02:15:55.684Z,14.25
2019-02-12T02:18:35.362Z,9.55
2019-02-12T02:21:15.525Z,14.85
2019-02-12T02:23:55.476Z,15.65
2019-02-12T02:26:35.441Z,12.47
2019-02-12T02:29:15.631Z,16.48
2019-02-12T02:31:55.814Z,21.05
2019-02-12T02:34:35.876Z,17.35
2019-02-12T02:37:16.019Z,11.48
2019-02-12T02:39:56.547Z,16.40
2019-02-12T02:42:37.300Z,16.12
2019-02-12T02:45:16.806Z,15.03
2019-02-12T02:47:57.087Z,12.35
2019-02-12T02:50:37.282Z,11.95
2019-02-12T02:53:17.382Z,13.75
2019-02-12T02:55:58.756Z,18.07
2019-02-12T02:58:38.636Z,9.33
2019-02-12T03:01:18.847Z,13.50
2019-02-12T03:03:58.577Z,11.55
2019-02-12T03:06:26.170Z,12.40
2019-02-12T03:09:13.206Z,12.10
2019-02-12T03:11:53.418Z,11.12
2019-02-12T03:14:33.373Z,9.63
2019-02-12T03:17:13.722Z,14.18
2019-02-12T03:19:53.369Z,15.73
2019-02-12T03:22:33.627Z,10.67
2019-02-12T03:25:14.029Z,15.58
2019-02-12T03:27:53.663Z,15.78
2019-02-12T03:30:34.029Z,13.40
2019-02-12T03:33:14.770Z,11.75
2019-02-12T03:35:54.871Z,18.00
2019-02-12T03:38:34.716Z,15.70
2019-02-12T03:41:14.975Z,9.78
2019-02-12T03:43:54.728Z,11.70
2019-02-12T03:46:34.795Z,12.28
2019-02-12T03:49:15.022Z,13.43
2019-02-12T03:51:55.022Z,11.10
2019-02-12T03:54:35.139Z,11.57
2019-02-12T03:57:15.341Z,18.10
2019-02-12T03:59:55.056Z,13.20
2019-02-12T04:02:35.160Z,16.97
2019-02-12T04:05:15.252Z,10.98
2019-02-12T04:07:55.442Z,13.03
2019-02-12T04:10:35.570Z,14.35
2019-02-12T04:13:15.422Z,11.75
2019-02-12T04:15:55.610Z,14.65
2019-02-12T04:18:35.788Z,10.05
2019-02-12T04:21:15.908Z,13.43
2019-02-12T04:23:55.870Z,14.00
2019-02-12T04:26:36.161Z,17.37
2019-02-12T04:29:16.556Z,14.00
2019-02-12T04:31:56.309Z,12.28
2019-02-12T04:34:36.918Z,14.43
2019-02-12T04:37:16.821Z,11.53
2019-02-12T04:39:56.861Z,11.30
2019-02-12T04:42:36.713Z,15.15
2019-02-12T04:45:16.962Z,15.65
2019-02-12T04:47:58.012Z,13.00
2019-02-12T04:50:38.264Z,13.70
2019-02-12T04:53:18.602Z,12.82
2019-02-12T04:55:58.494Z,15.65
2019-02-12T04:58:38.497Z,12.25
2019-02-12T05:01:18.632Z,11.43
2019-02-12T05:03:58.625Z,15.80
2019-02-12T05:06:38.872Z,11.67
2019-02-12T05:09:20.271Z,11.10
2019-02-12T05:12:00.203Z,14.68
2019-02-12T05:14:40.109Z,13.08
2019-02-12T05:17:20.418Z,10.70
2019-02-12T05:20:00.399Z,12.78
2019-02-12T05:22:43.698Z,11.05
2019-02-12T05:25:23.027Z,16.87
2019-02-12T05:28:03.450Z,12.13
2019-02-12T05:30:43.268Z,16.80
2019-02-12T05:33:23.371Z,16.40
2019-02-12T05:36:03.403Z,21.68
2019-02-12T05:38:43.239Z,12.75
2019-02-12T05:41:23.396Z,15.25
2019-02-12T05:44:03.456Z,16.53
2019-02-12T05:46:43.225Z,11.45
2019-02-12T05:49:23.605Z,12.28
2019-02-12T05:52:04.564Z,14.93
2019-02-12T05:54:44.850Z,14.68
2019-02-12T05:57:25.361Z,14.30
2019-02-12T06:00:06.229Z,15.38
2019-02-12T06:02:46.294Z,17.40
2019-02-12T06:05:26.263Z,19.42
2019-02-12T06:08:06.440Z,13.90
2019-02-12T06:10:46.515Z,16.20
2019-02-12T06:13:27.142Z,15.83
2019-02-12T06:16:07.003Z,14.07
2019-02-12T06:18:47.440Z,17.48
2019-02-12T06:21:27.352Z,13.68
2019-02-12T06:24:11.102Z,14.98
2019-02-12T06:26:51.004Z,14.63
2019-02-12T06:29:30.804Z,13.70
2019-02-12T06:32:10.902Z,16.15
2019-02-12T06:34:51.116Z,14.28
2019-02-12T06:37:31.270Z,13.93
2019-02-12T06:40:11.590Z,18.82
2019-02-12T06:42:51.547Z,19.77
2019-02-12T06:45:31.626Z,18.73
2019-02-12T06:48:11.534Z,17.23
2019-02-12T06:50:51.478Z,16.00
2019-02-12T06:53:32.090Z,18.57
2019-02-12T06:56:00.805Z,19.73
2019-02-12T06:59:14.985Z,15.63
2019-02-12T07:01:55.625Z,22.93
2019-02-12T07:04:35.229Z,17.20
2019-02-12T07:07:15.458Z,24.77
2019-02-12T07:09:55.666Z,18.17
2019-02-12T07:12:35.397Z,15.72
2019-02-12T07:15:15.709Z,17.87
2019-02-12T07:17:55.574Z,24.30
2019-02-12T07:20:35.794Z,16.32
2019-02-12T07:23:21.209Z,16.25
2019-02-12T07:25:57.848Z,17.77
2019-02-12T07:28:38.080Z,14.18
2019-02-12T07:31:17.721Z,18.73
2019-02-12T07:33:57.590Z,19.30
2019-02-12T07:36:37.814Z,23.57
2019-02-12T07:39:18.030Z,20.30
2019-02-12T07:48:15.565Z,19.65
2019-02-12T07:51:22.185Z,23.47
2019-02-12T07:54:07.603Z,16.17
2019-02-12T07:56:47.975Z,19.40
2019-02-12T07:59:28.055Z,16.57
2019-02-12T08:02:07.932Z,16.07
2019-02-12T08:04:48.060Z,20.15
2019-02-12T08:07:27.703Z,19.57
2019-02-12T08:10:08.027Z,15.63
2019-02-12T08:12:48.252Z,19.00
2019-02-12T08:15:28.392Z,13.35
2019-02-12T08:18:08.630Z,15.00
2019-02-12T08:20:48.700Z,15.53
2019-02-12T08:23:29.151Z,20.65
2019-02-12T08:26:08.810Z,16.85
2019-02-12T08:28:49.076Z,19.12
2019-02-12T08:31:28.904Z,21.10
2019-02-12T08:34:09.050Z,23.38
2019-02-12T08:36:49.385Z,19.40
2019-02-12T08:39:29.190Z,20.70
2019-02-12T08:42:09.383Z,23.33
2019-02-12T08:44:49.586Z,19.43
2019-02-12T08:47:29.783Z,16.70
2019-02-12T08:50:09.344Z,21.90
2019-02-12T08:52:49.494Z,30.00
2019-02-12T08:55:29.432Z,19.40
2019-02-12T08:58:10.110Z,19.77
2019-02-12T09:00:50.633Z,19.45
2019-02-12T09:03:30.553Z,21.95
2019-02-12T09:06:10.520Z,22.67
2019-02-12T09:08:50.761Z,22.42
2019-02-12T09:11:30.962Z,21.90
2019-02-12T09:14:10.986Z,26.60
2019-02-12T09:16:51.158Z,19.57
2019-02-12T09:19:31.075Z,22.63
2019-02-12T09:22:11.159Z,29.77
2019-02-12T09:24:51.064Z,20.85
2019-02-12T09:27:31.216Z,34.50
2019-02-12T09:30:11.355Z,20.17
2019-02-12T09:32:51.575Z,29.75
2019-02-12T09:35:31.882Z,21.50
2019-02-12T09:38:11.637Z,24.20
2019-02-12T09:40:51.720Z,30.27
2019-02-12T09:43:32.137Z,23.02
2019-02-12T09:46:12.417Z,26.30
2019-02-12T09:48:52.107Z,27.67
2019-02-12T09:51:32.329Z,26.55
2019-02-12T09:54:12.030Z,27.20
2019-02-12T09:56:52.125Z,23.77
2019-02-12T09:59:32.096Z,25.37
2019-02-12T10:02:12.418Z,31.17
2019-02-12T10:04:52.102Z,28.35
2019-02-12T10:07:32.403Z,28.73
2019-02-12T10:10:12.808Z,23.80
2019-02-12T10:12:52.518Z,27.32
2019-02-12T10:15:32.687Z,27.27
2019-02-12T10:18:12.952Z,27.70
2019-02-12T10:20:52.792Z,31.68
2019-02-12T10:23:32.901Z,28.85
2019-02-12T10:26:12.757Z,33.25
2019-02-12T10:28:52.920Z,26.12
2019-02-12T10:31:32.831Z,30.27
2019-02-12T10:34:13.105Z,28.47
2019-02-12T10:36:53.111Z,28.38
2019-02-12T10:39:33.169Z,34.13
2019-02-12T10:42:13.388Z,32.90
2019-02-12T10:44:53.085Z,37.42
2019-02-12T10:47:32.998Z,30.95
2019-02-12T10:50:13.368Z,36.03
2019-02-12T10:52:53.413Z,32.90
2019-02-12T10:55:33.366Z,35.95
2019-02-12T10:58:13.472Z,29.23
2019-02-12T11:00:53.425Z,27.93
2019-02-12T11:03:33.495Z,32.88
2019-02-12T11:06:13.650Z,27.48
2019-02-12T11:08:53.936Z,22.93
2019-02-12T11:11:33.783Z,27.05
2019-02-12T11:14:13.833Z,26.80
2019-02-12T11:16:54.004Z,26.62
2019-02-12T11:19:34.034Z,24.98
2019-02-12T11:22:13.830Z,24.23
2019-02-12T11:24:54.009Z,27.52
2019-02-12T11:27:34.228Z,27.58
2019-02-12T11:30:13.915Z,28.87
2019-02-12T11:32:54.520Z,27.23
2019-02-12T11:35:34.352Z,21.68
2019-02-12T11:38:14.841Z,26.45
2019-02-12T11:40:54.754Z,20.90
2019-02-12T11:43:34.666Z,21.00
2019-02-12T11:46:14.759Z,23.18
2019-02-12T11:48:54.884Z,28.33
2019-02-12T11:51:34.857Z,20.17
2019-02-12T11:54:16.093Z,19.40
2019-02-12T11:56:55.910Z,19.17
2019-02-12T11:59:36.349Z,19.85
2019-02-12T12:02:16.023Z,24.13
2019-02-12T12:04:56.436Z,21.40
2019-02-12T12:07:36.173Z,19.33
2019-02-12T12:10:16.161Z,17.17
2019-02-12T12:12:56.260Z,19.53
2019-02-12T12:15:36.155Z,24.57
2019-02-12T12:18:19.873Z,23.53
2019-02-12T12:21:00.370Z,19.98
2019-02-12T12:23:40.140Z,26.48
2019-02-12T12:26:20.634Z,21.27
2019-02-12T12:29:00.233Z,25.82
2019-02-12T12:31:40.226Z,25.17
2019-02-12T12:34:20.639Z,21.60
2019-02-12T12:37:00.438Z,26.90
2019-02-12T12:39:40.689Z,25.80
2019-02-12T12:42:21.021Z,29.77
2019-02-12T12:45:01.241Z,15.50
2019-02-12T12:47:41.115Z,18.45
2019-02-12T12:50:21.358Z,24.82
2019-02-12T12:53:01.761Z,20.25
2019-02-12T12:55:41.480Z,20.68
2019-02-12T12:58:21.548Z,16.30
2019-02-12T13:01:01.476Z,26.30
2019-02-12T13:03:41.799Z,18.10
2019-02-12T13:06:21.466Z,21.45
2019-02-12T13:09:01.442Z,15.28
2019-02-12T13:11:43.577Z,14.93
2019-02-12T13:14:23.740Z,11.50
2019-02-12T13:17:03.885Z,12.50
2019-02-12T13:19:43.874Z,18.33
2019-02-12T13:22:24.249Z,16.47
2019-02-12T13:25:08.589Z,19.95
2019-02-12T13:27:45.430Z,24.80
2019-02-12T13:30:25.368Z,24.40
2019-02-12T13:33:05.380Z,15.20
2019-02-12T13:35:46.611Z,9.67
2019-02-12T13:38:26.817Z,18.53
2019-02-12T13:41:06.742Z,11.20
2019-02-12T13:43:46.735Z,13.20
2019-02-12T13:46:26.699Z,13.70
2019-02-12T13:49:07.235Z,13.47
2019-02-12T13:51:47.400Z,15.50
2019-02-12T13:54:27.665Z,12.67
2019-02-12T13:57:07.430Z,13.37
2019-02-12T13:59:47.479Z,11.70
2019-02-12T14:02:27.274Z,19.40
2019-02-12T14:05:07.472Z,15.50
2019-02-12T14:07:47.352Z,9.80
2019-02-12T14:10:27.298Z,8.90
2019-02-12T14:13:07.453Z,9.58
2019-02-12T14:15:47.626Z,11.43
2019-02-12T14:18:28.252Z,10.93
2019-02-12T14:21:08.039Z,13.72
2019-02-12T14:23:48.329Z,13.53
2019-02-12T14:26:28.348Z,15.27
2019-02-12T14:29:08.316Z,9.20
2019-02-12T14:31:53.084Z,11.53
2019-02-12T14:34:30.850Z,11.03
2019-02-12T14:37:10.717Z,13.47
2019-02-12T14:42:30.934Z,14.57
2019-02-12T14:45:11.095Z,13.40
2019-02-12T14:47:51.217Z,18.03
2019-02-12T14:50:31.480Z,17.83
2019-02-12T14:53:11.259Z,19.83
2019-02-12T14:55:51.261Z,21.30
2019-02-12T14:58:31.385Z,24.97
2019-02-12T15:01:11.588Z,13.87
2019-02-12T15:03:51.933Z,13.77
2019-02-12T15:06:32.441Z,16.30
2019-02-12T15:09:12.505Z,20.13
2019-02-12T15:11:52.664Z,13.00
2019-02-12T15:14:32.690Z,12.70
2019-02-12T15:17:13.276Z,19.20
2019-02-12T15:19:53.854Z,13.33
2019-02-12T15:22:34.858Z,19.20
2019-02-12T15:25:14.999Z,27.30
2019-02-12T15:27:55.182Z,17.90
2019-02-12T15:30:35.482Z,15.50
2019-02-12T15:33:16.301Z,15.57
2019-02-12T15:35:56.660Z,14.60
2019-02-12T15:38:36.329Z,21.40
2019-02-12T15:41:17.218Z,17.23
2019-02-12T15:43:57.104Z,21.20
2019-02-12T15:46:37.220Z,12.37
2019-02-12T15:49:17.349Z,22.63
2019-02-12T15:51:57.292Z,16.37
2019-02-12T15:54:37.235Z,23.33
2019-02-12T15:57:17.387Z,21.60
2019-02-12T15:59:57.448Z,17.47
2019-02-12T16:02:37.544Z,19.40
2019-02-12T16:05:17.468Z,22.23
2019-02-12T16:07:57.588Z,20.53
2019-02-12T16:10:39.630Z,21.90
2019-02-12T16:13:19.468Z,19.77
2019-02-12T16:15:59.455Z,12.83
2019-02-12T16:18:39.797Z,27.50
2019-02-12T16:21:19.739Z,38.87
2019-02-12T16:24:00.240Z,32.13
2019-02-12T16:26:41.532Z,27.83
2019-02-12T16:29:22.392Z,15.83
2019-02-12T16:32:02.287Z,26.10
2019-02-12T16:34:42.362Z,16.97
2019-02-12T16:37:21.988Z,17.40
2019-02-12T16:40:01.956Z,16.10
2019-02-12T16:42:41.822Z,22.13
2019-02-12T16:45:21.737Z,21.50
2019-02-12T16:48:01.931Z,29.87
2019-02-12T16:50:41.859Z,21.40
2019-02-12T16:53:21.797Z,27.67
2019-02-12T16:56:08.160Z,33.90
2019-02-12T16:58:43.891Z,27.73
2019-02-12T17:01:23.817Z,32.47
2019-02-12T17:04:07.227Z,32.53
2019-02-12T17:06:49.189Z,31.60
2019-02-12T17:09:30.511Z,29.97
2019-02-12T17:12:10.363Z,26.23
2019-02-12T17:14:51.330Z,18.77
2019-02-12T17:17:31.200Z,18.03
2019-02-12T17:20:11.631Z,21.23
2019-02-12T17:22:51.580Z,19.60
2019-02-12T17:25:31.859Z,9.60
2019-02-12T17:28:11.845Z,7.90
2019-02-12T17:30:51.830Z,7.47
2019-02-12T17:33:32.179Z,10.23
2019-02-12T17:36:11.999Z,11.20
2019-02-12T17:38:52.282Z,19.47
2019-02-12T17:41:32.300Z,19.55
2019-02-12T17:44:12.123Z,20.25
2019-02-12T17:46:52.212Z,17.20
2019-02-12T17:49:32.309Z,10.83
2019-02-12T17:52:12.485Z,9.23
2019-02-12T17:54:52.585Z,9.08
2019-02-12T17:57:33.507Z,10.30
2019-02-12T18:00:16.406Z,11.85
2019-02-12T18:02:56.560Z,10.25
2019-02-12T18:05:24.300Z,12.98
2019-02-12T18:08:11.269Z,20.02
2019-02-12T18:10:51.113Z,25.48
2019-02-12T18:13:31.430Z,24.02
2019-02-12T18:16:11.592Z,18.27
2019-02-12T18:18:51.477Z,15.05
2019-02-12T18:21:31.642Z,19.30
2019-02-12T18:24:11.531Z,22.73
2019-02-12T18:26:52.046Z,30.25
2019-02-12T18:29:32.044Z,21.23
2019-02-12T18:32:11.999Z,25.08
2019-02-12T18:34:51.988Z,22.65
2019-02-12T18:37:32.377Z,22.87
2019-02-12T18:40:12.273Z,21.62
2019-02-12T18:42:52.295Z,16.70
2019-02-12T18:45:33.476Z,22.98
2019-02-12T18:48:13.674Z,19.93
2019-02-12T18:50:53.396Z,18.05
2019-02-12T18:53:34.267Z,22.07
2019-02-12T18:56:14.774Z,27.65
2019-02-12T18:58:55.065Z,28.87
2019-02-12T19:01:34.896Z,29.07
2019-02-12T19:04:13.180Z,26.75
2019-02-12T19:07:00.610Z,22.52
2019-02-12T19:09:40.640Z,15.28
2019-02-12T19:12:20.532Z,11.00
2019-02-12T19:15:00.481Z,17.73
2019-02-12T19:17:40.572Z,15.13
2019-02-12T19:20:20.434Z,27.25
2019-02-12T19:23:00.404Z,15.72
2019-02-12T19:25:40.908Z,20.25
2019-02-12T19:28:20.766Z,17.82
2019-02-12T19:31:00.865Z,16.57
2019-02-12T19:33:41.136Z,12.63
2019-02-12T19:36:21.270Z,10.88
2019-02-12T19:39:01.308Z,13.65
2019-02-12T19:41:43.460Z,23.40
2019-02-12T19:44:23.360Z,12.20
2019-02-12T19:47:03.449Z,8.95
2019-02-12T19:49:43.397Z,8.88
2019-02-12T19:52:23.680Z,11.63
2019-02-12T19:55:03.935Z,13.35
2019-02-12T19:57:43.896Z,13.00
2019-02-12T20:00:23.853Z,18.87
2019-02-12T20:03:04.013Z,14.33
2019-02-12T20:05:44.018Z,12.88
2019-02-12T20:08:22.000Z,10.00
2019-02-12T20:11:01.626Z,9.98
2019-02-12T20:13:41.824Z,16.35
2019-02-12T20:16:22.120Z,30.30
2019-02-12T20:19:01.720Z,19.30
2019-02-12T20:21:41.926Z,24.92
2019-02-12T20:24:22.124Z,25.52
2019-02-12T20:27:06.555Z,22.25
2019-02-12T20:29:44.288Z,62.53
2019-02-12T20:32:24.427Z,61.35
2019-02-12T20:35:04.347Z,49.20
2019-02-12T20:37:44.337Z,34.08
2019-02-12T20:40:24.452Z,20.57
2019-02-12T20:43:04.375Z,17.62
2019-02-12T20:45:44.673Z,17.77
2019-02-12T20:48:24.464Z,23.95
2019-02-12T20:51:04.585Z,18.05
2019-02-12T20:53:44.672Z,15.00
2019-02-12T20:56:24.701Z,13.00
2019-02-12T20:59:05.056Z,9.90
2019-02-12T21:01:45.088Z,12.70
2019-02-12T21:04:24.880Z,19.62
2019-02-12T21:07:05.066Z,17.50
2019-02-12T21:09:45.624Z,20.35
2019-02-12T21:12:26.075Z,22.80
2019-02-12T21:15:05.971Z,22.00
2019-02-12T21:17:45.903Z,23.47
2019-02-12T21:20:26.057Z,21.68
2019-02-12T21:23:06.169Z,31.85
2019-02-12T21:25:45.948Z,39.27
2019-02-12T21:28:25.968Z,33.85
2019-02-12T21:31:06.016Z,26.25
2019-02-12T21:33:46.347Z,15.00
2019-02-12T21:36:26.313Z,20.95
2019-02-12T21:39:07.748Z,16.12
2019-02-12T21:41:48.698Z,10.98
2019-02-12T21:44:28.480Z,10.18
2019-02-12T21:47:08.543Z,10.82
2019-02-12T21:49:48.786Z,14.03
2019-02-12T21:52:28.810Z,19.57
2019-02-12T21:55:08.999Z,15.80
2019-02-12T21:57:49.258Z,12.53
2019-02-12T22:00:28.924Z,12.45
2019-02-12T22:03:08.840Z,9.10
2019-02-12T22:05:49.055Z,8.98
2019-02-12T22:08:29.188Z,13.10
2019-02-12T22:11:09.208Z,12.78
2019-02-12T22:13:49.226Z,14.33
2019-02-12T22:16:29.554Z,13.25
2019-02-12T22:19:09.623Z,11.75
2019-02-12T22:21:49.716Z,22.27
2019-02-12T22:24:33.195Z,17.90
2019-02-12T22:27:13.199Z,20.10
2019-02-12T22:29:53.040Z,18.65
2019-02-12T22:32:33.204Z,16.73
2019-02-12T22:35:14.624Z,24.18
2019-02-12T22:37:52.767Z,30.80
2019-02-12T22:40:39.950Z,28.52
2019-02-12T22:43:19.807Z,35.83
2019-02-12T22:45:59.423Z,31.62
2019-02-12T22:48:40.704Z,27.02
2019-02-12T22:51:20.841Z,37.65
2019-02-12T22:54:00.543Z,42.55
2019-02-12T22:56:40.823Z,30.45
2019-02-12T22:59:21.189Z,30.90
2019-02-12T23:02:01.138Z,46.53
2019-02-12T23:04:40.832Z,26.90
2019-02-12T23:07:20.910Z,24.90
2019-02-12T23:10:00.993Z,19.90
2019-02-12T23:12:40.805Z,10.40
2019-02-12T23:15:21.035Z,11.10
2019-02-12T23:18:00.995Z,14.33
2019-02-12T23:20:41.130Z,16.35
2019-02-12T23:23:21.283Z,16.62
2019-02-12T23:26:01.278Z,14.03
2019-02-12T23:28:41.493Z,13.53
2019-02-12T23:31:21.495Z,18.60
2019-02-12T23:34:01.483Z,22.93
2019-02-12T23:36:41.665Z,18.15
2019-02-12T23:39:22.096Z,12.78
2019-02-12T23:42:02.198Z,10.90
2019-02-12T23:44:41.880Z,12.75
2019-02-12T23:47:21.768Z,12.05
2019-02-12T23:50:01.978Z,17.98
2019-02-12T23:52:41.869Z,19.32
2019-02-12T23:55:22.189Z,11.03
2019-02-12T23:58:06.019Z,11.97
